KFCM/FCM METAR and TAF weather

Enter ICAO airport designator
Station Type Date Time Source
KFCM METAR 2022/01/27 22:53 UTC NOAA

KFCM 272253Z 36009G23KT 10SM CLR M07/M18 A3027 RMK AO2 SLP264 T10721183


Station Type Date Time Source
KFCM Decoded METAR 2022/01/27 22:53 UTC NOAA

Minneapolis, Flying Cloud Airport, MN, United States (KFCM) 44-49-56N 093-28-13W 280M
Jan 27, 2022 - 05:53 PM EST / 2022.01.27 2253 UTC
Wind: from the N (360 degrees) at 10 MPH (9 KT) gusting to 26 MPH (23 KT):0
Visibility: 10 mile(s):0
Sky conditions: clear
Temperature: 19.0 F (-7.2 C)
Windchill: 6 F (-14 C):1
Dew Point: -0.9 F (-18.3 C)
Relative Humidity: 40%
Pressure (altimeter): 30.27 in. Hg (1025 hPa)
ob: KFCM 272253Z 36009G23KT 10SM CLR M07/M18 A3027 RMK AO2 SLP264 T10721183
cycle: 23

Station Type Date Time Source
KFCM TAF 2018/02/05 20:59 UTC NOAA

TAF
AMD KFCM 051959Z 0520/0618 27007KT 6SM -SHSN BKN020 OVC050
TEMPO 0520/0522 SCT020 BKN050
FM052200 27007KT P6SM FEW020 BKN100
FM060100 31007KT P6SM FEW200
FM061000 VRB03KT P6SM FEW250
AMD NOT SKED

Example: see airport list